Accueil
METAR-TAF:

METAR-TAF

Aéroports :

Nancy, France

Aéroport de Nancy-Essey

latitude: 48-41N, longitude: 006-13E, altitude: 225 m

Observation

Le bulletin a été fait il y a 17 minutes, à 19:00 UTC
Vent 19 kt de sud-ouest avec des rafales jusqu'à 35 kt, variant entre sud et ouest/sud-ouest
Température 7°C
Humidité 81%
Pression 983 hPa
Visibilité 10 km ou plus
pluie faible

METAR: LFSN 111900Z AUTO 22019G35KT 190V250 9999 -RA SCT016/// BKN038/// OVC054/// ///TCU 07/04 Q0983

Heure: 20:17 (19:17 UTC)


TAF: absent

Observations et prévisions météorologiques de plus de 4000 aéroports (messages METAR et TAF).

Les stations disponibles sont représentées par des disques jaunes et rouges sur la carte.

Passer la souris dessus pour voir le nom de la station.

Cliquer dessus pour voir les observations et prévisions météorologiques.

Pour changer de carte: cliquez sur les boutons verts avec une croix noire pour zoomer, sur le bouton vert avec un tiret pour effectuer un zoom arrière, ou sur les flèches vertes pour les cartes adjacentes.


METAR-TAF: